createdAt,value
2022-09-30T00:01:32.808Z,40.05
2022-09-30T00:04:00.948Z,43.85
2022-09-30T00:06:30.198Z,39.70
2022-09-30T00:08:58.194Z,43.88
2022-09-30T00:11:28.986Z,44.38
2022-09-30T00:13:58.244Z,43.35
2022-09-30T00:16:29.745Z,44.15
2022-09-30T00:18:58.799Z,42.88
2022-09-30T00:21:28.708Z,40.35
2022-09-30T00:23:56.015Z,43.75
2022-09-30T00:26:24.560Z,39.20
2022-09-30T00:28:56.871Z,40.70
2022-09-30T00:31:27.013Z,37.47
2022-09-30T00:34:07.478Z,40.88
2022-09-30T00:36:36.430Z,40.47
2022-09-30T00:39:05.283Z,45.80
2022-09-30T00:41:33.207Z,42.42
2022-09-30T00:44:00.566Z,42.60
2022-09-30T00:46:37.390Z,43.15
2022-09-30T00:49:17.297Z,41.38
2022-09-30T00:51:57.058Z,41.88
2022-09-30T00:54:31.700Z,36.50
2022-09-30T00:57:04.000Z,41.35
2022-09-30T00:59:34.964Z,37.28
2022-09-30T01:02:02.568Z,38.92
2022-09-30T01:04:32.273Z,40.33
2022-09-30T01:07:05.415Z,41.13
2022-09-30T01:09:35.698Z,36.95
2022-09-30T01:12:19.607Z,34.25
2022-09-30T01:14:51.264Z,34.88
2022-09-30T01:17:44.085Z,38.90
2022-09-30T01:20:23.791Z,35.33
2022-09-30T01:23:11.183Z,49.22
2022-09-30T01:25:41.410Z,40.35
2022-09-30T01:28:42.092Z,41.00
2022-09-30T01:31:37.596Z,41.72
2022-09-30T01:34:15.980Z,53.03
2022-09-30T01:36:57.474Z,38.92
2022-09-30T01:39:41.930Z,40.47
2022-09-30T01:42:24.325Z,40.22
2022-09-30T01:45:14.799Z,36.25
2022-09-30T01:47:51.216Z,35.15
2022-09-30T01:50:49.306Z,35.72
2022-09-30T01:53:31.245Z,33.10
2022-09-30T01:56:06.026Z,35.25
2022-09-30T01:58:40.569Z,39.38
2022-09-30T02:01:15.194Z,35.42
2022-09-30T02:03:52.992Z,39.15
2022-09-30T02:06:29.786Z,34.47
2022-09-30T02:11:38.189Z,33.30
2022-09-30T02:14:17.824Z,36.10
2022-09-30T02:17:02.301Z,34.00
2022-09-30T02:20:10.817Z,36.13
2022-09-30T02:22:48.945Z,33.78
2022-09-30T02:25:26.088Z,36.25
2022-09-30T02:30:24.590Z,35.90
2022-09-30T02:33:01.309Z,39.85
2022-09-30T02:40:35.892Z,35.13
2022-09-30T02:43:05.493Z,39.05
2022-09-30T02:45:49.217Z,33.63
2022-09-30T02:48:29.467Z,29.85
2022-09-30T02:51:11.993Z,39.33
2022-09-30T02:53:54.463Z,40.03
2022-09-30T02:56:27.756Z,35.38
2022-09-30T02:58:57.325Z,38.70
2022-09-30T03:01:25.137Z,38.15
2022-09-30T03:04:03.645Z,37.33
2022-09-30T03:06:31.136Z,35.83
2022-09-30T03:08:58.506Z,33.03
2022-09-30T03:11:28.660Z,42.65
2022-09-30T03:14:03.045Z,48.80
2022-09-30T03:16:48.889Z,48.55
2022-09-30T03:19:31.609Z,49.67
2022-09-30T03:22:05.194Z,47.38
2022-09-30T03:24:44.579Z,44.40
2022-09-30T03:27:42.754Z,39.45
2022-09-30T03:30:17.902Z,36.65
2022-09-30T03:33:10.612Z,43.42
2022-09-30T03:35:50.998Z,42.28
2022-09-30T03:38:23.715Z,46.88
2022-09-30T03:41:11.419Z,42.75
2022-09-30T03:46:23.835Z,36.97
2022-09-30T03:48:55.184Z,32.97
2022-09-30T03:51:25.022Z,39.15
2022-09-30T03:53:54.183Z,40.00
2022-09-30T03:56:29.667Z,37.08
2022-09-30T03:58:58.613Z,37.75
2022-09-30T04:01:25.844Z,42.35
2022-09-30T04:03:54.182Z,38.95
2022-09-30T04:06:24.189Z,37.65
2022-09-30T04:08:51.588Z,35.20
2022-09-30T04:11:18.803Z,33.72
2022-09-30T04:13:46.226Z,38.00
2022-09-30T04:16:13.451Z,32.95
2022-09-30T04:18:40.757Z,36.00
2022-09-30T04:21:14.366Z,36.17
2022-09-30T04:23:43.035Z,40.30
2022-09-30T04:26:15.934Z,39.67
2022-09-30T04:28:43.933Z,45.55
2022-09-30T04:31:12.782Z,44.22
2022-09-30T04:33:40.744Z,43.53
2022-09-30T04:36:08.199Z,52.03
2022-09-30T04:38:35.655Z,45.13
2022-09-30T04:41:05.418Z,41.00
2022-09-30T04:43:34.261Z,41.75
2022-09-30T04:46:01.915Z,44.28
2022-09-30T04:48:31.416Z,45.47
2022-09-30T04:51:02.382Z,46.03
2022-09-30T04:53:30.356Z,51.85
2022-09-30T04:56:01.371Z,44.50
2022-09-30T04:58:33.409Z,41.65
2022-09-30T05:01:06.881Z,44.17
2022-09-30T05:03:35.183Z,37.50
2022-09-30T05:06:03.641Z,45.47
2022-09-30T05:08:33.829Z,41.70
2022-09-30T05:11:13.381Z,38.40
2022-09-30T05:13:41.609Z,32.80
2022-09-30T05:16:10.288Z,29.13
2022-09-30T05:18:39.505Z,33.13
2022-09-30T05:21:07.127Z,43.97
2022-09-30T05:23:34.550Z,40.03
2022-09-30T05:26:02.503Z,34.95
2022-09-30T05:28:31.390Z,37.83
2022-09-30T05:31:01.327Z,33.30
2022-09-30T05:33:29.919Z,35.83
2022-09-30T05:36:02.826Z,39.10
2022-09-30T05:38:30.313Z,42.05
2022-09-30T05:40:57.846Z,38.65
2022-09-30T05:43:25.212Z,47.70
2022-09-30T05:45:56.885Z,42.65
2022-09-30T05:48:25.676Z,35.67
2022-09-30T05:50:58.480Z,39.85
2022-09-30T05:53:26.068Z,45.45
2022-09-30T05:55:53.834Z,45.75
2022-09-30T05:58:21.471Z,42.63
2022-09-30T06:00:49.622Z,45.33
2022-09-30T06:03:18.033Z,40.53
2022-09-30T06:05:45.978Z,42.72
2022-09-30T06:08:16.121Z,43.70
2022-09-30T06:10:44.540Z,54.58
2022-09-30T06:13:12.209Z,57.55
2022-09-30T06:15:41.412Z,62.20
2022-09-30T06:18:10.021Z,66.25
2022-09-30T06:20:37.830Z,46.72
2022-09-30T06:23:05.247Z,51.80
2022-09-30T06:25:32.466Z,55.30
2022-09-30T06:27:59.959Z,50.88
2022-09-30T06:30:30.538Z,50.50
2022-09-30T06:33:01.390Z,45.17
2022-09-30T06:35:29.214Z,45.42
2022-09-30T06:37:56.458Z,51.10
2022-09-30T06:40:24.907Z,49.00
2022-09-30T06:42:52.281Z,42.55
2022-09-30T06:45:29.597Z,46.97
2022-09-30T06:48:01.500Z,46.67
2022-09-30T06:50:31.287Z,39.17
2022-09-30T06:53:00.130Z,45.03
2022-09-30T06:55:29.283Z,47.92
2022-09-30T06:57:57.453Z,40.75
2022-09-30T07:00:26.649Z,44.92
2022-09-30T07:02:57.320Z,46.25
2022-09-30T07:05:26.449Z,44.63
2022-09-30T07:07:54.575Z,46.55
2022-09-30T07:10:22.081Z,43.42
2022-09-30T07:12:51.217Z,45.45
2022-09-30T07:15:22.239Z,47.53
2022-09-30T07:17:54.025Z,40.28
2022-09-30T07:20:21.278Z,39.85
2022-09-30T07:22:48.430Z,46.58
2022-09-30T07:25:16.160Z,47.33
2022-09-30T07:27:43.377Z,46.33
2022-09-30T07:30:16.282Z,45.42
2022-09-30T07:32:48.292Z,42.28
2022-09-30T07:35:15.612Z,43.33
2022-09-30T07:37:43.072Z,46.00
2022-09-30T07:40:10.909Z,49.35
2022-09-30T07:42:44.897Z,40.15
2022-09-30T07:45:16.065Z,42.55
2022-09-30T07:47:43.303Z,34.47
2022-09-30T07:50:10.947Z,34.80
2022-09-30T07:52:38.549Z,34.95
2022-09-30T07:55:06.042Z,29.50
2022-09-30T07:57:33.221Z,28.40
2022-09-30T08:00:12.084Z,28.80
2022-09-30T08:02:48.204Z,31.50
2022-09-30T08:05:15.656Z,31.77
2022-09-30T08:07:42.927Z,26.42
2022-09-30T08:10:10.387Z,28.75
2022-09-30T08:12:38.149Z,36.55
2022-09-30T08:15:06.675Z,30.00
2022-09-30T08:17:33.861Z,27.73
2022-09-30T08:20:01.568Z,27.20
2022-09-30T08:22:28.882Z,30.67
2022-09-30T08:24:56.099Z,24.33
2022-09-30T08:27:23.591Z,24.55
2022-09-30T08:29:55.037Z,27.50
2022-09-30T08:32:23.301Z,22.90
2022-09-30T08:34:51.173Z,20.83
2022-09-30T08:37:18.541Z,20.83
2022-09-30T08:39:48.395Z,25.52
2022-09-30T08:42:38.983Z,21.98
2022-09-30T08:45:28.343Z,19.67
2022-09-30T08:48:17.625Z,20.50
2022-09-30T08:51:28.770Z,20.40
2022-09-30T08:53:59.615Z,25.55
2022-09-30T08:56:32.582Z,18.38
2022-09-30T08:59:28.786Z,17.35
2022-09-30T09:02:20.335Z,19.30
2022-09-30T09:04:49.787Z,22.85
2022-09-30T09:07:34.492Z,18.42
2022-09-30T09:10:07.657Z,18.73
2022-09-30T09:12:37.705Z,20.85
2022-09-30T09:15:26.061Z,20.77
2022-09-30T09:18:24.979Z,19.02
2022-09-30T09:20:55.348Z,20.23
2022-09-30T09:23:23.382Z,19.48
2022-09-30T09:25:54.108Z,22.30
2022-09-30T09:29:03.271Z,16.98
2022-09-30T09:31:30.572Z,18.65
2022-09-30T09:34:09.027Z,21.08
2022-09-30T09:36:44.977Z,21.85
2022-09-30T09:39:37.577Z,23.00
2022-09-30T09:42:23.823Z,19.88
2022-09-30T09:44:59.975Z,23.33
2022-09-30T09:47:27.251Z,21.48
2022-09-30T09:49:57.731Z,24.48
2022-09-30T09:52:37.604Z,24.13
2022-09-30T09:55:05.356Z,28.50
2022-09-30T09:57:32.632Z,21.80
2022-09-30T10:00:26.555Z,26.08
2022-09-30T10:03:20.130Z,26.00
2022-09-30T10:05:59.898Z,25.52
2022-09-30T10:08:29.147Z,20.65
2022-09-30T10:11:03.541Z,24.25
2022-09-30T10:13:47.101Z,22.10
2022-09-30T10:16:29.814Z,24.27
2022-09-30T10:18:58.071Z,26.88
2022-09-30T10:21:28.968Z,24.38
2022-09-30T10:23:57.763Z,31.13
2022-09-30T10:29:02.020Z,23.13
2022-09-30T10:31:37.908Z,23.67
2022-09-30T10:34:20.533Z,19.52
2022-09-30T10:36:49.048Z,23.48
2022-09-30T10:39:30.004Z,21.42
2022-09-30T10:42:26.585Z,33.60
2022-09-30T10:45:10.257Z,19.07
2022-09-30T10:47:44.954Z,19.38
2022-09-30T10:50:17.392Z,22.95
2022-09-30T10:52:56.121Z,25.65
2022-09-30T10:55:34.497Z,24.00
2022-09-30T10:58:24.276Z,46.85
2022-09-30T11:00:59.538Z,23.95
2022-09-30T11:03:53.386Z,26.73
2022-09-30T11:06:22.632Z,21.73
2022-09-30T11:08:57.746Z,19.05
2022-09-30T11:11:35.170Z,21.25
2022-09-30T11:14:12.854Z,20.90
2022-09-30T11:17:06.535Z,17.70
2022-09-30T11:19:43.676Z,21.23
2022-09-30T11:22:33.844Z,29.90
2022-09-30T11:25:01.398Z,19.45
2022-09-30T11:27:56.011Z,20.27
2022-09-30T11:30:58.481Z,21.02
2022-09-30T11:33:31.226Z,18.73
2022-09-30T11:36:33.276Z,22.60
2022-09-30T11:39:27.487Z,17.45
2022-09-30T11:42:13.618Z,19.55
2022-09-30T11:44:44.137Z,19.98
2022-09-30T11:47:49.157Z,17.75
2022-09-30T11:50:25.429Z,17.52
2022-09-30T11:52:58.827Z,18.10
2022-09-30T11:55:47.578Z,18.10
2022-09-30T11:58:41.032Z,18.45
2022-09-30T12:01:13.495Z,18.23
2022-09-30T12:03:46.397Z,17.73
2022-09-30T12:06:40.797Z,18.60
2022-09-30T12:09:21.291Z,18.30
2022-09-30T12:11:55.799Z,16.33
2022-09-30T12:14:36.149Z,17.42
2022-09-30T12:17:11.027Z,16.40
2022-09-30T12:19:48.310Z,16.20
2022-09-30T12:22:22.105Z,16.00
2022-09-30T12:24:49.648Z,15.65
2022-09-30T12:27:34.146Z,15.25
2022-09-30T12:30:26.685Z,15.80
2022-09-30T12:33:18.046Z,21.73
2022-09-30T12:36:27.217Z,17.40
2022-09-30T12:39:24.701Z,18.70
2022-09-30T12:42:22.904Z,16.65
2022-09-30T12:44:59.150Z,18.70
2022-09-30T12:47:32.611Z,15.75
2022-09-30T12:50:03.350Z,15.95
2022-09-30T12:52:34.354Z,18.23
2022-09-30T12:55:31.350Z,16.50
2022-09-30T12:58:01.469Z,15.50
2022-09-30T13:00:34.655Z,18.67
2022-09-30T13:03:15.603Z,15.82
2022-09-30T13:05:43.845Z,14.18
2022-09-30T13:08:14.446Z,15.20
2022-09-30T13:10:46.111Z,14.15
2022-09-30T13:13:13.466Z,15.45
2022-09-30T13:15:42.126Z,15.52
2022-09-30T13:18:21.298Z,11.45
2022-09-30T13:20:53.193Z,13.18
2022-09-30T13:23:42.584Z,12.55
2022-09-30T13:26:32.659Z,13.32
2022-09-30T13:29:00.225Z,12.40
2022-09-30T13:31:51.741Z,19.80
2022-09-30T13:34:28.696Z,16.92
2022-09-30T13:37:01.583Z,14.13
2022-09-30T13:39:52.392Z,12.98
2022-09-30T13:42:19.800Z,13.45
2022-09-30T13:45:21.436Z,13.32
2022-09-30T13:48:11.056Z,12.60
2022-09-30T13:50:49.136Z,13.38
2022-09-30T13:53:30.871Z,15.23
2022-09-30T13:56:01.509Z,15.85
2022-09-30T13:58:47.326Z,13.68
2022-09-30T14:01:21.629Z,13.35
2022-09-30T14:03:56.295Z,15.27
2022-09-30T14:07:00.981Z,14.45
2022-09-30T14:09:47.385Z,14.50
2022-09-30T14:12:35.491Z,15.20
2022-09-30T14:15:27.924Z,15.93
2022-09-30T14:18:07.073Z,14.55
2022-09-30T14:20:43.137Z,12.95
2022-09-30T14:23:15.376Z,15.82
2022-09-30T14:26:00.313Z,16.42
2022-09-30T14:28:41.392Z,16.65
2022-09-30T14:31:15.268Z,14.05
2022-09-30T14:33:50.066Z,14.43
2022-09-30T14:36:30.091Z,14.15
2022-09-30T14:39:00.816Z,15.38
2022-09-30T14:41:29.743Z,15.55
2022-09-30T14:44:05.007Z,14.57
2022-09-30T14:46:39.004Z,29.85
2022-09-30T14:49:14.052Z,19.38
2022-09-30T14:51:44.994Z,15.20
2022-09-30T14:54:24.173Z,23.30
2022-09-30T14:56:54.589Z,18.25
2022-09-30T14:59:34.706Z,17.05
2022-09-30T15:02:16.125Z,16.48
2022-09-30T15:04:50.376Z,17.00
2022-09-30T15:07:18.044Z,17.48
2022-09-30T15:09:50.255Z,17.27
2022-09-30T15:12:20.948Z,21.42
2022-09-30T15:14:59.562Z,18.45
2022-09-30T15:17:29.662Z,20.70
2022-09-30T15:19:58.803Z,17.98
2022-09-30T15:22:29.385Z,20.38
2022-09-30T15:24:58.177Z,21.35
2022-09-30T15:27:31.378Z,21.60
2022-09-30T15:30:23.093Z,20.42
2022-09-30T15:33:04.573Z,20.73
2022-09-30T15:35:33.301Z,22.17
2022-09-30T15:38:20.753Z,24.60
2022-09-30T15:43:32.979Z,27.48
2022-09-30T15:46:16.418Z,22.65
2022-09-30T15:48:47.030Z,29.25
2022-09-30T15:51:30.479Z,32.67
2022-09-30T15:54:00.709Z,23.08
2022-09-30T15:56:31.055Z,21.35
2022-09-30T15:59:05.511Z,29.40
2022-09-30T16:01:46.150Z,22.52
2022-09-30T16:04:16.430Z,25.15
2022-09-30T16:07:08.650Z,29.15
2022-09-30T16:09:41.552Z,27.58
2022-09-30T16:12:15.027Z,41.55
2022-09-30T16:14:51.294Z,43.63
2022-09-30T16:17:23.562Z,39.97
2022-09-30T16:20:02.845Z,37.10
2022-09-30T16:22:41.877Z,36.13
2022-09-30T16:25:33.248Z,32.92
2022-09-30T16:28:14.694Z,29.30
2022-09-30T16:30:49.215Z,30.58
2022-09-30T16:33:19.094Z,25.08
2022-09-30T16:35:49.775Z,27.10
2022-09-30T16:38:19.051Z,26.25
2022-09-30T16:40:46.267Z,25.50
2022-09-30T16:43:13.899Z,26.85
2022-09-30T16:45:41.666Z,26.65
2022-09-30T16:48:19.258Z,28.23
2022-09-30T16:50:52.994Z,27.42
2022-09-30T16:53:20.507Z,30.02
2022-09-30T16:55:48.915Z,25.17
2022-09-30T16:58:16.660Z,29.27
2022-09-30T17:00:45.421Z,27.95
2022-09-30T17:03:15.138Z,32.65
2022-09-30T17:05:46.703Z,26.60
2022-09-30T17:08:17.133Z,24.90
2022-09-30T17:10:46.840Z,32.22
2022-09-30T17:13:17.716Z,30.10
2022-09-30T17:15:50.922Z,31.77
2022-09-30T17:18:19.260Z,31.30
2022-09-30T17:20:53.256Z,29.92
2022-09-30T17:23:23.195Z,31.98
2022-09-30T17:25:51.690Z,36.40
2022-09-30T17:28:19.166Z,34.42
2022-09-30T17:30:48.300Z,28.45
2022-09-30T17:33:17.368Z,38.55
2022-09-30T17:35:44.721Z,32.15
2022-09-30T17:38:14.461Z,36.45
2022-09-30T17:41:00.236Z,35.22
2022-09-30T17:43:27.739Z,31.42
2022-09-30T17:45:59.696Z,35.53
2022-09-30T17:48:27.082Z,36.70
2022-09-30T17:50:55.597Z,31.25
2022-09-30T17:53:23.553Z,31.92
2022-09-30T17:56:11.896Z,28.58
2022-09-30T17:58:40.248Z,30.90
2022-09-30T18:01:08.391Z,30.70
2022-09-30T18:03:36.873Z,28.63
2022-09-30T18:06:06.641Z,29.40
2022-09-30T18:08:36.173Z,31.38
2022-09-30T18:11:04.000Z,31.15
2022-09-30T18:13:31.970Z,30.15
2022-09-30T18:16:02.070Z,29.30
2022-09-30T18:18:30.259Z,30.10
2022-09-30T18:21:01.620Z,34.60
2022-09-30T18:23:29.383Z,41.05
2022-09-30T18:25:58.026Z,52.97
2022-09-30T18:28:26.514Z,50.83
2022-09-30T18:34:08.087Z,37.28
2022-09-30T18:36:38.603Z,41.13
2022-09-30T18:39:07.029Z,38.55
2022-09-30T18:41:37.403Z,36.35
2022-09-30T18:44:06.182Z,37.80
2022-09-30T18:46:33.795Z,36.63
2022-09-30T18:49:02.927Z,37.88
2022-09-30T18:51:31.339Z,40.50
2022-09-30T18:54:01.024Z,48.20
2022-09-30T18:56:36.439Z,61.53
2022-09-30T18:59:05.484Z,78.05
2022-09-30T19:01:34.514Z,81.22
2022-09-30T19:04:03.993Z,85.72
2022-09-30T19:06:32.598Z,89.07
2022-09-30T19:09:00.187Z,96.35
2022-09-30T19:11:30.522Z,99.30
2022-09-30T19:14:03.330Z,98.00
2022-09-30T19:16:38.636Z,93.65
2022-09-30T19:19:10.548Z,87.20
2022-09-30T19:21:41.073Z,86.13
2022-09-30T19:24:10.637Z,77.97
2022-09-30T19:26:41.074Z,73.40
2022-09-30T19:29:11.312Z,75.10
2022-09-30T19:31:39.005Z,74.85
2022-09-30T19:34:07.295Z,77.50
2022-09-30T19:36:47.694Z,77.28
2022-09-30T19:39:18.542Z,66.63
2022-09-30T19:41:47.266Z,65.88
2022-09-30T19:44:20.049Z,60.40
2022-09-30T19:46:53.966Z,62.83
2022-09-30T19:49:23.504Z,53.53
2022-09-30T19:51:53.011Z,60.17
2022-09-30T19:54:36.095Z,56.90
2022-09-30T19:57:08.107Z,56.63
2022-09-30T19:59:35.654Z,55.30
2022-09-30T20:02:03.760Z,54.67
2022-09-30T20:04:34.432Z,64.40
2022-09-30T20:07:02.330Z,52.70
2022-09-30T20:09:30.846Z,53.85
2022-09-30T20:11:59.309Z,51.25
2022-09-30T20:14:45.429Z,48.03
2022-09-30T20:17:13.140Z,51.28
2022-09-30T20:19:40.516Z,51.85
2022-09-30T20:22:08.108Z,45.08
2022-09-30T20:24:35.768Z,54.63
2022-09-30T20:27:04.458Z,50.25
2022-09-30T20:29:32.072Z,47.15
2022-09-30T20:32:00.691Z,49.55
2022-09-30T20:34:28.103Z,49.38
2022-09-30T20:36:55.293Z,45.40
2022-09-30T20:39:23.740Z,43.70
2022-09-30T20:41:51.405Z,44.42
2022-09-30T20:44:19.074Z,43.30
2022-09-30T20:46:46.625Z,44.75
2022-09-30T20:49:14.003Z,42.70
2022-09-30T20:51:41.134Z,41.90
2022-09-30T20:54:09.599Z,46.05
2022-09-30T20:57:05.362Z,53.67
2022-09-30T21:01:51.923Z,66.20
2022-09-30T21:04:19.167Z,68.88
2022-09-30T21:06:48.072Z,63.75
2022-09-30T21:09:15.662Z,62.72
2022-09-30T21:11:42.943Z,58.10
2022-09-30T21:14:10.408Z,57.05
2022-09-30T21:16:38.077Z,59.13
2022-09-30T21:19:05.489Z,62.92
2022-09-30T21:21:33.193Z,62.45
2022-09-30T21:24:00.724Z,61.50
2022-09-30T21:26:28.868Z,58.58
2022-09-30T21:28:56.203Z,57.67
2022-09-30T21:31:26.871Z,54.80
2022-09-30T21:33:56.555Z,62.35
2022-09-30T21:36:24.743Z,58.63
2022-09-30T21:38:52.303Z,62.60
2022-09-30T21:41:20.065Z,56.90
2022-09-30T21:43:47.856Z,52.65
2022-09-30T21:46:16.569Z,56.67
2022-09-30T21:48:45.501Z,55.60
2022-09-30T21:51:13.923Z,47.15
2022-09-30T21:53:41.955Z,51.50
2022-09-30T21:56:11.718Z,50.90
2022-09-30T21:58:39.300Z,50.72
2022-09-30T22:01:07.283Z,49.65
2022-09-30T22:03:37.897Z,50.83
2022-09-30T22:06:08.016Z,52.28
2022-09-30T22:08:40.193Z,49.05
2022-09-30T22:11:29.848Z,51.72
2022-09-30T22:13:59.711Z,51.47
2022-09-30T22:16:30.961Z,51.90
2022-09-30T22:19:00.593Z,53.05
2022-09-30T22:21:33.678Z,55.72
2022-09-30T22:24:03.199Z,50.42
2022-09-30T22:26:32.890Z,59.13
2022-09-30T22:29:02.458Z,53.63
2022-09-30T22:31:32.242Z,54.55
2022-09-30T22:34:21.199Z,76.47
2022-09-30T22:37:06.747Z,73.15
2022-09-30T22:39:34.883Z,70.63
2022-09-30T22:42:02.286Z,69.15
2022-09-30T22:44:33.504Z,69.35
2022-09-30T22:47:01.901Z,71.57
2022-09-30T22:49:33.339Z,71.35
2022-09-30T22:52:02.175Z,67.82
2022-09-30T22:54:29.894Z,65.28
2022-09-30T22:56:59.430Z,73.20
2022-09-30T22:59:27.877Z,73.53
2022-09-30T23:01:58.762Z,73.43
2022-09-30T23:04:27.055Z,78.13
2022-09-30T23:06:57.788Z,86.82
2022-09-30T23:09:25.498Z,90.38
2022-09-30T23:11:54.612Z,85.30
2022-09-30T23:14:22.575Z,90.00
2022-09-30T23:16:50.690Z,89.28
2022-09-30T23:19:18.692Z,87.65
2022-09-30T23:21:46.061Z,84.95
2022-09-30T23:24:14.471Z,82.90
2022-09-30T23:26:41.940Z,83.15
2022-09-30T23:29:12.830Z,87.80
2022-09-30T23:31:41.215Z,83.47
2022-09-30T23:34:08.992Z,86.15
2022-09-30T23:36:37.241Z,80.63
2022-09-30T23:39:12.520Z,88.45
2022-09-30T23:41:40.498Z,86.40
2022-09-30T23:44:10.069Z,84.75
2022-09-30T23:46:37.268Z,82.18
2022-09-30T23:49:04.668Z,75.25
2022-09-30T23:51:34.248Z,81.78
2022-09-30T23:54:02.440Z,82.40
2022-09-30T23:56:29.736Z,80.72
2022-09-30T23:58:59.031Z,76.32
